createdAt,value
2023-04-27T00:01:15.567Z,100.00
2023-04-27T00:03:42.822Z,100.00
2023-04-27T00:06:09.931Z,100.00
2023-04-27T00:08:36.917Z,100.00
2023-04-27T00:11:04.076Z,100.00
2023-04-27T00:13:30.903Z,100.00
2023-04-27T00:15:57.757Z,100.00
2023-04-27T00:18:24.554Z,100.00
2023-04-27T00:20:51.526Z,100.00
2023-04-27T00:23:18.316Z,100.00
2023-04-27T00:25:45.082Z,100.00
2023-04-27T00:28:11.831Z,100.00
2023-04-27T00:30:38.625Z,100.00
2023-04-27T00:33:06.034Z,100.00
2023-04-27T00:35:33.671Z,100.00
2023-04-27T00:38:00.499Z,100.00
2023-04-27T00:40:27.310Z,100.00
2023-04-27T00:42:54.098Z,100.00
2023-04-27T00:45:21.195Z,100.00
2023-04-27T00:47:48.151Z,100.00
2023-04-27T00:50:16.385Z,100.00
2023-04-27T00:52:44.282Z,100.00
2023-04-27T00:55:11.799Z,100.00
2023-04-27T00:57:40.289Z,100.00
2023-04-27T01:00:07.770Z,100.00
2023-04-27T01:02:35.955Z,100.00
2023-04-27T01:05:03.642Z,100.00
2023-04-27T01:07:30.519Z,100.00
2023-04-27T01:09:58.247Z,100.00
2023-04-27T01:12:25.259Z,100.00
2023-04-27T01:14:52.139Z,100.00
2023-04-27T01:17:18.925Z,100.00
2023-04-27T01:19:46.069Z,100.00
2023-04-27T01:22:15.243Z,100.00
2023-04-27T01:24:42.086Z,100.00
2023-04-27T01:27:08.933Z,100.00
2023-04-27T01:29:37.215Z,100.00
2023-04-27T01:32:04.875Z,100.00
2023-04-27T01:34:31.945Z,100.00
2023-04-27T01:36:58.742Z,100.00
2023-04-27T01:39:25.808Z,100.00
2023-04-27T01:41:52.740Z,100.00
2023-04-27T01:44:21.175Z,100.00
2023-04-27T01:46:48.083Z,100.00
2023-04-27T01:49:15.377Z,100.00
2023-04-27T01:51:42.388Z,100.00
2023-04-27T01:54:09.107Z,100.00
2023-04-27T01:56:37.916Z,100.00
2023-04-27T01:59:04.670Z,100.00
2023-04-27T02:01:34.305Z,100.00
2023-04-27T02:04:01.246Z,100.00
2023-04-27T02:06:29.216Z,100.00
2023-04-27T02:08:56.033Z,100.00
2023-04-27T02:11:23.063Z,100.00
2023-04-27T02:13:50.841Z,100.00
2023-04-27T02:16:17.651Z,100.00
2023-04-27T02:18:44.712Z,100.00
2023-04-27T02:21:11.783Z,100.00
2023-04-27T02:23:38.660Z,100.00
2023-04-27T02:26:06.082Z,100.00
2023-04-27T02:28:32.833Z,100.00
2023-04-27T02:31:00.471Z,100.00
2023-04-27T02:33:27.221Z,100.00
2023-04-27T02:35:53.933Z,100.00
2023-04-27T02:38:21.302Z,100.00
2023-04-27T02:40:53.633Z,100.00
2023-04-27T02:43:20.744Z,100.00
2023-04-27T02:45:47.502Z,100.00
2023-04-27T02:48:14.532Z,100.00
2023-04-27T02:50:42.452Z,100.00
2023-04-27T02:53:10.469Z,100.00
2023-04-27T02:55:37.668Z,100.00
2023-04-27T02:58:04.898Z,100.00
2023-04-27T03:00:31.718Z,100.00
2023-04-27T03:02:58.503Z,100.00
2023-04-27T03:05:28.345Z,100.00
2023-04-27T03:07:55.241Z,100.00
2023-04-27T03:10:22.024Z,100.00
2023-04-27T03:12:48.830Z,100.00
2023-04-27T03:15:15.972Z,100.00
2023-04-27T03:17:42.690Z,100.00
2023-04-27T03:20:10.306Z,100.00
2023-04-27T03:22:37.273Z,100.00
2023-04-27T03:25:04.447Z,100.00
2023-04-27T03:27:32.316Z,100.00
2023-04-27T03:29:59.197Z,100.00
2023-04-27T03:32:26.099Z,100.00
2023-04-27T03:34:54.084Z,100.00
2023-04-27T03:37:20.895Z,100.00
2023-04-27T03:39:47.688Z,100.00
2023-04-27T03:42:14.787Z,100.00
2023-04-27T03:44:41.549Z,100.00
2023-04-27T03:47:09.854Z,100.00
2023-04-27T03:49:38.786Z,100.00
2023-04-27T03:52:06.914Z,100.00
2023-04-27T03:54:34.922Z,100.00
2023-04-27T03:57:02.730Z,100.00
2023-04-27T03:59:30.330Z,100.00
2023-04-27T04:01:59.534Z,100.00
2023-04-27T04:04:28.003Z,100.00
2023-04-27T04:06:54.946Z,100.00
2023-04-27T04:09:23.952Z,100.00
2023-04-27T04:11:52.635Z,100.00
2023-04-27T04:14:19.811Z,100.00
2023-04-27T04:16:46.863Z,100.00
2023-04-27T04:19:13.907Z,100.00
2023-04-27T04:21:41.585Z,100.00
2023-04-27T04:24:10.280Z,100.00
2023-04-27T04:26:38.641Z,100.00
2023-04-27T04:29:05.774Z,100.00
2023-04-27T04:31:33.817Z,100.00
2023-04-27T04:34:01.985Z,100.00
2023-04-27T04:36:29.052Z,100.00
2023-04-27T04:38:57.396Z,100.00
2023-04-27T04:41:25.636Z,100.00
2023-04-27T04:43:52.423Z,100.00
2023-04-27T04:46:20.083Z,100.00
2023-04-27T04:48:47.034Z,100.00
2023-04-27T04:51:14.223Z,100.00
2023-04-27T04:53:41.030Z,100.00
2023-04-27T04:56:13.098Z,100.00
2023-04-27T04:58:40.182Z,100.00
2023-04-27T05:01:07.095Z,100.00
2023-04-27T05:03:34.242Z,100.00
2023-04-27T05:06:01.150Z,100.00
2023-04-27T05:08:27.945Z,100.00
2023-04-27T05:10:54.988Z,100.00
2023-04-27T05:13:22.102Z,100.00
2023-04-27T05:15:48.862Z,100.00
2023-04-27T05:18:15.787Z,100.00
2023-04-27T05:20:42.580Z,100.00
2023-04-27T05:23:09.459Z,100.00
2023-04-27T05:25:41.859Z,100.00
2023-04-27T05:28:09.937Z,100.00
2023-04-27T05:30:37.002Z,100.00
2023-04-27T05:33:04.599Z,95.31
2023-04-27T05:35:32.610Z,93.69
2023-04-27T05:37:59.758Z,91.98
2023-04-27T05:40:26.643Z,87.66
2023-04-27T05:42:53.875Z,89.05
2023-04-27T05:45:22.039Z,90.29
2023-04-27T05:47:49.017Z,91.09
2023-04-27T05:50:15.916Z,91.75
2023-04-27T05:52:42.718Z,91.03
2023-04-27T05:55:09.693Z,88.76
2023-04-27T05:57:36.404Z,88.29
2023-04-27T06:00:08.956Z,86.31
2023-04-27T06:02:39.244Z,84.68
2023-04-27T06:05:11.922Z,85.51
2023-04-27T06:07:43.858Z,86.92
2023-04-27T06:10:11.781Z,85.63
2023-04-27T06:12:38.907Z,84.20
2023-04-27T06:15:08.756Z,85.00
2023-04-27T06:17:39.655Z,88.23
2023-04-27T06:20:07.402Z,87.67
2023-04-27T06:22:34.334Z,86.39
2023-04-27T06:25:01.218Z,86.55
2023-04-27T06:27:27.946Z,84.97
2023-04-27T06:29:54.840Z,85.39
2023-04-27T06:32:21.801Z,84.99
2023-04-27T06:34:49.831Z,83.72
2023-04-27T06:37:17.387Z,84.10
2023-04-27T06:39:44.886Z,81.82
2023-04-27T06:42:11.866Z,79.19
2023-04-27T06:44:39.054Z,79.41
2023-04-27T06:47:05.941Z,79.18
2023-04-27T06:49:32.641Z,79.84
2023-04-27T06:52:02.931Z,78.63
2023-04-27T06:54:29.851Z,74.21
2023-04-27T06:56:56.521Z,70.65
2023-04-27T06:59:23.422Z,68.68
2023-04-27T07:01:50.195Z,68.33
2023-04-27T07:04:17.249Z,69.54
2023-04-27T07:06:44.032Z,67.85
2023-04-27T07:09:26.033Z,68.05
2023-04-27T07:11:54.388Z,67.53
2023-04-27T07:14:21.578Z,63.15
2023-04-27T07:16:48.484Z,62.04
2023-04-27T07:19:15.555Z,61.62
2023-04-27T07:21:42.635Z,62.92
2023-04-27T07:24:09.373Z,60.67
2023-04-27T07:26:37.049Z,61.03
2023-04-27T07:29:11.057Z,61.07
2023-04-27T07:31:41.738Z,60.48
2023-04-27T07:34:08.759Z,60.72
2023-04-27T07:36:35.488Z,59.78
2023-04-27T07:39:02.392Z,61.22
2023-04-27T07:41:29.127Z,59.56
2023-04-27T07:43:55.910Z,57.33
2023-04-27T07:46:22.735Z,56.28
2023-04-27T07:48:50.369Z,53.64
2023-04-27T07:51:17.681Z,49.47
2023-04-27T07:53:46.020Z,50.14
2023-04-27T07:56:14.425Z,48.95
2023-04-27T07:58:41.144Z,46.74
2023-04-27T08:01:07.830Z,45.56
2023-04-27T08:03:35.100Z,44.09
2023-04-27T08:06:02.410Z,42.80
2023-04-27T08:08:29.609Z,42.53
2023-04-27T08:10:56.471Z,40.73
2023-04-27T08:13:24.802Z,37.88
2023-04-27T08:15:58.352Z,38.78
2023-04-27T08:18:27.321Z,40.91
2023-04-27T08:20:54.622Z,44.12
2023-04-27T08:23:21.657Z,42.84
2023-04-27T08:25:48.685Z,38.39
2023-04-27T08:28:16.002Z,40.48
2023-04-27T08:30:43.023Z,37.16
2023-04-27T08:33:09.989Z,38.07
2023-04-27T08:35:36.849Z,38.75
2023-04-27T08:38:03.574Z,38.23
2023-04-27T08:40:30.758Z,37.06
2023-04-27T08:42:59.449Z,37.30
2023-04-27T08:45:27.705Z,36.49
2023-04-27T08:47:54.464Z,35.67
2023-04-27T08:50:21.632Z,36.19
2023-04-27T08:52:49.620Z,35.09
2023-04-27T08:55:16.827Z,36.09
2023-04-27T08:57:54.895Z,36.46
2023-04-27T09:00:21.968Z,35.44
2023-04-27T09:02:49.506Z,37.07
2023-04-27T09:05:21.894Z,35.39
2023-04-27T09:07:57.952Z,35.83
2023-04-27T09:10:25.010Z,35.39
2023-04-27T09:13:01.250Z,35.97
2023-04-27T09:15:31.914Z,34.92
2023-04-27T09:17:58.969Z,35.59
2023-04-27T09:20:27.344Z,35.76
2023-04-27T09:22:55.770Z,36.99
2023-04-27T09:25:32.734Z,35.43
2023-04-27T09:28:01.333Z,37.13
2023-04-27T09:30:29.439Z,36.23
2023-04-27T09:33:01.170Z,36.54
2023-04-27T09:35:31.609Z,36.58
2023-04-27T09:37:59.336Z,36.78
2023-04-27T09:40:29.719Z,36.14
2023-04-27T09:42:58.707Z,36.24
2023-04-27T09:45:25.885Z,36.45
2023-04-27T09:47:53.274Z,37.52
2023-04-27T09:50:21.782Z,36.44
2023-04-27T09:52:48.632Z,36.71
2023-04-27T09:55:28.564Z,36.86
2023-04-27T09:58:06.283Z,36.00
2023-04-27T10:00:48.919Z,35.87
2023-04-27T10:03:38.147Z,36.84
2023-04-27T10:06:17.207Z,36.10
2023-04-27T10:08:45.509Z,36.80
2023-04-27T10:11:17.207Z,36.84
2023-04-27T10:13:54.839Z,37.65
2023-04-27T10:16:22.859Z,35.50
2023-04-27T10:18:55.421Z,35.51
2023-04-27T10:21:22.715Z,36.02
2023-04-27T10:23:51.860Z,36.06
2023-04-27T10:26:24.025Z,37.14
2023-04-27T10:29:10.195Z,37.33
2023-04-27T10:31:44.096Z,38.27
2023-04-27T10:34:15.920Z,37.79
2023-04-27T10:36:42.740Z,37.48
2023-04-27T10:39:39.556Z,36.62
2023-04-27T10:42:11.584Z,38.67
2023-04-27T10:44:38.894Z,37.50
2023-04-27T10:47:22.223Z,38.52
2023-04-27T10:49:53.630Z,38.19
2023-04-27T10:52:20.649Z,38.28
2023-04-27T10:54:47.398Z,37.87
2023-04-27T10:57:14.457Z,37.91
2023-04-27T10:59:51.330Z,38.69
2023-04-27T11:02:25.964Z,37.77
2023-04-27T11:04:52.921Z,38.11
2023-04-27T11:07:28.157Z,38.00
2023-04-27T11:09:55.771Z,39.10
2023-04-27T11:12:22.595Z,38.64
2023-04-27T11:14:49.347Z,37.09
2023-04-27T11:17:16.188Z,37.97
2023-04-27T11:19:47.510Z,39.16
2023-04-27T11:22:18.108Z,38.65
2023-04-27T11:24:51.911Z,38.17
2023-04-27T11:27:22.110Z,38.17
2023-04-27T11:29:48.970Z,38.05
2023-04-27T11:32:23.424Z,38.36
2023-04-27T11:34:53.769Z,36.80
2023-04-27T11:37:25.927Z,38.38
2023-04-27T11:39:57.623Z,38.07
2023-04-27T11:42:28.327Z,36.75
2023-04-27T11:44:55.542Z,38.20
2023-04-27T11:47:23.107Z,38.68
2023-04-27T11:49:52.584Z,39.07
2023-04-27T11:52:19.413Z,38.96
2023-04-27T11:54:56.368Z,39.61
2023-04-27T11:57:30.009Z,39.70
2023-04-27T12:00:00.230Z,40.41
2023-04-27T12:02:29.270Z,39.49
2023-04-27T12:04:56.448Z,39.26
2023-04-27T12:07:23.571Z,40.19
2023-04-27T12:09:50.237Z,40.74
2023-04-27T12:12:18.430Z,40.30
2023-04-27T12:14:46.115Z,41.34
2023-04-27T12:17:13.238Z,41.92
2023-04-27T12:19:40.168Z,40.39
2023-04-27T12:22:07.164Z,40.25
2023-04-27T12:24:34.112Z,40.52
2023-04-27T12:27:01.435Z,41.62
2023-04-27T12:29:28.218Z,38.72
2023-04-27T12:31:55.779Z,38.19
2023-04-27T12:34:22.579Z,40.69
2023-04-27T12:36:49.409Z,40.83
2023-04-27T12:39:21.927Z,41.04
2023-04-27T12:41:49.804Z,38.57
2023-04-27T12:44:18.610Z,39.39
2023-04-27T12:46:46.390Z,38.41
2023-04-27T12:49:13.335Z,40.13
2023-04-27T12:51:40.334Z,40.67
2023-04-27T12:54:09.030Z,39.74
2023-04-27T12:56:35.938Z,40.11
2023-04-27T12:59:02.659Z,38.43
2023-04-27T13:01:31.245Z,38.38
2023-04-27T13:04:02.602Z,38.95
2023-04-27T13:06:31.348Z,39.34
2023-04-27T13:08:58.892Z,40.14
2023-04-27T13:11:26.536Z,38.27
2023-04-27T13:13:55.036Z,38.93
2023-04-27T13:16:25.216Z,38.91
2023-04-27T13:18:53.330Z,39.92
2023-04-27T13:21:20.484Z,40.19
2023-04-27T13:23:48.026Z,40.36
2023-04-27T13:26:15.802Z,40.46
2023-04-27T13:28:43.060Z,40.34
2023-04-27T13:31:11.033Z,40.62
2023-04-27T13:33:42.632Z,42.19
2023-04-27T13:36:10.843Z,45.32
2023-04-27T13:38:37.570Z,43.86
2023-04-27T13:41:05.021Z,44.26
2023-04-27T13:43:31.877Z,43.69
2023-04-27T13:46:01.077Z,40.61
2023-04-27T13:48:28.838Z,40.33
2023-04-27T13:50:55.917Z,41.96
2023-04-27T13:53:26.156Z,40.32
2023-04-27T13:55:57.140Z,41.22
2023-04-27T13:58:25.988Z,40.72
2023-04-27T14:00:53.815Z,40.63
2023-04-27T14:03:21.633Z,40.83
2023-04-27T14:05:50.921Z,40.03
2023-04-27T14:11:00.701Z,39.49
2023-04-27T14:13:27.483Z,38.14
2023-04-27T14:15:54.438Z,38.16
2023-04-27T14:18:27.381Z,39.28
2023-04-27T14:20:58.762Z,38.04
2023-04-27T14:23:25.513Z,39.66
2023-04-27T14:25:52.209Z,39.80
2023-04-27T14:28:18.916Z,39.72
2023-04-27T14:30:45.694Z,39.46
2023-04-27T14:33:12.480Z,40.72
2023-04-27T14:35:39.234Z,40.67
2023-04-27T14:38:06.245Z,40.50
2023-04-27T14:40:33.132Z,40.86
2023-04-27T14:43:00.119Z,40.52
2023-04-27T14:45:33.533Z,39.86
2023-04-27T14:48:06.952Z,39.85
2023-04-27T14:50:33.792Z,39.87
2023-04-27T14:53:00.672Z,40.59
2023-04-27T14:55:27.703Z,39.39
2023-04-27T14:57:54.482Z,40.78
2023-04-27T15:00:23.770Z,39.51
2023-04-27T15:02:54.941Z,40.22
2023-04-27T15:05:21.853Z,39.49
2023-04-27T15:07:49.893Z,39.82
2023-04-27T15:10:16.763Z,40.09
2023-04-27T15:12:43.565Z,39.71
2023-04-27T15:15:13.664Z,40.07
2023-04-27T15:17:40.443Z,40.53
2023-04-27T15:20:08.114Z,39.57
2023-04-27T15:22:34.856Z,38.35
2023-04-27T15:25:01.593Z,39.71
2023-04-27T15:27:28.304Z,38.92
2023-04-27T15:29:55.338Z,38.46
2023-04-27T15:32:29.863Z,38.79
2023-04-27T15:35:00.145Z,38.77
2023-04-27T15:37:28.534Z,38.54
2023-04-27T15:39:56.109Z,39.08
2023-04-27T15:42:23.709Z,39.47
2023-04-27T15:44:50.967Z,39.99
2023-04-27T15:47:17.666Z,40.23
2023-04-27T15:49:56.220Z,40.48
2023-04-27T15:52:24.358Z,40.35
2023-04-27T15:54:51.116Z,41.11
2023-04-27T15:57:18.451Z,40.12
2023-04-27T15:59:45.187Z,40.32
2023-04-27T16:02:13.189Z,40.54
2023-04-27T16:04:39.946Z,40.85
2023-04-27T16:07:07.460Z,41.56
2023-04-27T16:09:34.431Z,40.62
2023-04-27T16:12:01.974Z,40.56
2023-04-27T16:14:28.699Z,40.77
2023-04-27T16:17:00.582Z,41.38
2023-04-27T16:19:27.437Z,42.04
2023-04-27T16:21:54.493Z,41.29
2023-04-27T16:24:21.849Z,41.14
2023-04-27T16:26:48.553Z,41.61
2023-04-27T16:29:15.490Z,41.70
2023-04-27T16:31:43.075Z,41.33
2023-04-27T16:34:09.902Z,41.75
2023-04-27T16:36:36.669Z,42.84
2023-04-27T16:39:05.140Z,43.03
2023-04-27T16:41:32.027Z,42.30
2023-04-27T16:43:59.098Z,42.20
2023-04-27T16:46:26.018Z,41.91
2023-04-27T16:48:52.821Z,41.90
2023-04-27T16:51:19.745Z,42.95
2023-04-27T16:53:46.681Z,42.60
2023-04-27T16:56:14.246Z,43.66
2023-04-27T16:58:41.135Z,43.50
2023-04-27T17:01:08.035Z,43.75
2023-04-27T17:03:36.164Z,44.32
2023-04-27T17:06:03.285Z,44.61
2023-04-27T17:08:30.094Z,45.40
2023-04-27T17:10:56.857Z,45.42
2023-04-27T17:13:23.733Z,45.29
2023-04-27T17:15:51.787Z,45.88
2023-04-27T17:18:18.583Z,45.99
2023-04-27T17:20:45.313Z,46.54
2023-04-27T17:23:12.025Z,47.46
2023-04-27T17:25:38.780Z,47.56
2023-04-27T17:28:05.512Z,48.51
2023-04-27T17:30:32.251Z,49.72
2023-04-27T17:32:58.980Z,50.12
2023-04-27T17:35:26.748Z,49.82
2023-04-27T17:37:53.597Z,50.22
2023-04-27T17:40:21.078Z,50.70
2023-04-27T17:42:48.052Z,50.68
2023-04-27T17:45:15.732Z,51.86
2023-04-27T17:47:42.782Z,52.37
2023-04-27T17:50:09.895Z,53.12
2023-04-27T17:52:36.750Z,54.87
2023-04-27T17:55:03.684Z,55.40
2023-04-27T17:57:30.402Z,56.68
2023-04-27T17:59:57.205Z,56.35
2023-04-27T18:02:23.972Z,56.93
2023-04-27T18:04:50.875Z,57.06
2023-04-27T18:07:19.314Z,58.23
2023-04-27T18:09:46.085Z,59.32
2023-04-27T18:12:12.795Z,59.79
2023-04-27T18:14:39.840Z,60.98
2023-04-27T18:17:06.643Z,61.47
2023-04-27T18:19:33.436Z,63.57
2023-04-27T18:22:00.131Z,65.52
2023-04-27T18:24:26.843Z,66.18
2023-04-27T18:26:53.614Z,68.96
2023-04-27T18:29:20.625Z,69.58
2023-04-27T18:31:47.616Z,70.43
2023-04-27T18:34:14.463Z,70.36
2023-04-27T18:36:41.251Z,71.85
2023-04-27T18:39:08.006Z,72.58
2023-04-27T18:41:34.766Z,73.51
2023-04-27T18:44:05.873Z,73.21
2023-04-27T18:46:33.016Z,72.66
2023-04-27T18:49:00.982Z,73.07
2023-04-27T18:51:29.165Z,73.19
2023-04-27T18:53:56.416Z,73.04
2023-04-27T18:56:23.425Z,72.09
2023-04-27T18:58:50.246Z,73.41
2023-04-27T19:01:25.416Z,73.18
2023-04-27T19:03:53.503Z,71.26
2023-04-27T19:06:21.209Z,68.37
2023-04-27T19:08:48.435Z,68.09
2023-04-27T19:11:15.253Z,66.59
2023-04-27T19:13:44.031Z,66.72
2023-04-27T19:16:11.873Z,65.42
2023-04-27T19:18:40.453Z,64.05
2023-04-27T19:21:09.912Z,63.97
2023-04-27T19:23:36.971Z,60.17
2023-04-27T19:26:12.515Z,61.54
2023-04-27T19:28:40.680Z,60.78
2023-04-27T19:31:07.781Z,59.26
2023-04-27T19:33:34.622Z,58.52
2023-04-27T19:36:01.312Z,59.62
2023-04-27T19:38:28.042Z,60.39
2023-04-27T19:40:54.772Z,57.14
2023-04-27T19:43:21.618Z,54.35
2023-04-27T19:45:51.647Z,54.25
2023-04-27T19:48:18.506Z,54.34
2023-04-27T19:50:45.458Z,54.48
2023-04-27T19:53:12.616Z,54.70
2023-04-27T19:55:40.506Z,54.80
2023-04-27T19:58:07.391Z,53.86
2023-04-27T20:00:34.366Z,54.28
2023-04-27T20:03:01.380Z,55.40
2023-04-27T20:05:28.551Z,56.12
2023-04-27T20:07:55.477Z,56.96
2023-04-27T20:10:22.292Z,56.99
2023-04-27T20:12:56.494Z,54.06
2023-04-27T20:15:24.964Z,51.87
2023-04-27T20:17:52.991Z,52.70
2023-04-27T20:20:22.706Z,51.20
2023-04-27T20:22:49.596Z,51.17
2023-04-27T20:25:16.404Z,52.55
2023-04-27T20:27:43.198Z,53.42
2023-04-27T20:30:10.322Z,54.18
2023-04-27T20:32:39.473Z,55.26
2023-04-27T20:35:11.540Z,54.47
2023-04-27T20:37:39.913Z,54.71
2023-04-27T20:40:08.014Z,55.22
2023-04-27T20:42:36.041Z,53.71
2023-04-27T20:45:05.516Z,54.13
2023-04-27T20:47:32.281Z,54.07
2023-04-27T20:49:59.058Z,52.81
2023-04-27T20:52:27.972Z,51.63
2023-04-27T20:54:57.459Z,51.04
2023-04-27T20:57:24.209Z,50.02
2023-04-27T20:59:51.093Z,50.41
2023-04-27T21:02:17.835Z,50.83
2023-04-27T21:04:44.577Z,50.67
2023-04-27T21:07:11.382Z,51.26
2023-04-27T21:09:39.029Z,51.18
2023-04-27T21:12:06.589Z,50.96
2023-04-27T21:14:33.850Z,51.29
2023-04-27T21:17:00.917Z,51.93
2023-04-27T21:19:27.738Z,52.38
2023-04-27T21:21:54.404Z,51.97
2023-04-27T21:24:21.331Z,52.43
2023-04-27T21:26:48.547Z,53.03
2023-04-27T21:29:15.253Z,53.92
2023-04-27T21:31:42.039Z,54.17
2023-04-27T21:34:08.989Z,53.31
2023-04-27T21:36:35.744Z,53.23
2023-04-27T21:39:02.516Z,52.98
2023-04-27T21:41:29.285Z,52.45
2023-04-27T21:43:56.799Z,52.61
2023-04-27T21:46:24.140Z,52.58
2023-04-27T21:48:51.139Z,52.79
2023-04-27T21:51:18.147Z,53.13
2023-04-27T21:53:44.855Z,53.24
2023-04-27T21:56:11.795Z,52.59
2023-04-27T21:58:38.563Z,52.87
2023-04-27T22:01:05.267Z,52.96
2023-04-27T22:03:32.771Z,53.63
2023-04-27T22:05:59.670Z,53.67
2023-04-27T22:08:26.567Z,53.84
2023-04-27T22:10:53.334Z,54.11
2023-04-27T22:13:20.386Z,53.64
2023-04-27T22:15:48.282Z,53.60
2023-04-27T22:18:15.664Z,54.72
2023-04-27T22:20:42.934Z,54.45
2023-04-27T22:23:10.012Z,55.00
2023-04-27T22:25:37.057Z,55.40
2023-04-27T22:28:04.148Z,54.73
2023-04-27T22:30:31.291Z,54.28
2023-04-27T22:32:58.183Z,54.29
2023-04-27T22:35:27.693Z,55.06
2023-04-27T22:37:59.139Z,56.05
2023-04-27T22:40:26.546Z,56.52
2023-04-27T22:42:55.164Z,56.48
2023-04-27T22:45:22.857Z,56.68
2023-04-27T22:47:49.755Z,56.90
2023-04-27T22:50:16.794Z,54.63
2023-04-27T22:52:43.724Z,53.94
2023-04-27T22:55:12.065Z,53.58
2023-04-27T22:57:39.872Z,52.97
2023-04-27T23:00:11.134Z,52.61
2023-04-27T23:02:39.589Z,51.87
2023-04-27T23:05:11.038Z,50.81
2023-04-27T23:07:40.961Z,50.38
2023-04-27T23:10:08.175Z,49.91
2023-04-27T23:12:35.204Z,50.21
2023-04-27T23:15:01.985Z,50.28
2023-04-27T23:17:31.748Z,50.22
2023-04-27T23:19:59.193Z,50.09
2023-04-27T23:22:26.746Z,50.22
2023-04-27T23:24:54.031Z,51.12
2023-04-27T23:27:21.506Z,51.51
2023-04-27T23:29:48.257Z,52.32
2023-04-27T23:32:15.528Z,52.18
2023-04-27T23:34:42.242Z,52.44
2023-04-27T23:37:09.055Z,52.54
2023-04-27T23:39:35.837Z,52.94
2023-04-27T23:42:03.384Z,53.58
2023-04-27T23:44:30.493Z,53.33
2023-04-27T23:46:57.493Z,54.10
2023-04-27T23:49:24.269Z,54.22
2023-04-27T23:51:52.641Z,53.79
2023-04-27T23:54:19.523Z,54.34
2023-04-27T23:56:46.346Z,55.00
2023-04-27T23:59:14.998Z,56.01
